OPA Logo
 
ASOS:
At:2019.03.25 2015 UTC
Wind:180° @ 23-29 KT
Viz: 10 mile(s)
Sky: clear
Temp: 55 F (13 C)
DewP: 23 F (-5 C)
RH: 28%
Baro: 29.88 in.
ob: KBDN 252015Z AUTO 18023G29KT 10SM CLR 13/M05 A2988 RMK AO2

ASOS: KRDM
At:2019.03.25 1956 UTC
Wind:220° @ 7KT
Viz: 10 mile(s)
Sky: partly cloudy
Temp: 54.0 F (12.2 C)
DewP: 30.0 F (-1.1 C)
RH: 39%
Baro: 29.86 in.
ob: KRDM 251956Z 22007KT 10SM SCT090 12/M01 A2986 RMK AO2 PK WND 15027/1901 SLP114 T01221011
Apache-SSL Logo

Valid HTML 4.01!

Local FAA Notices



15 May 2002 - FAA APPROVES 4 new antennas near St. Charles Hospital


2 May 2002, FAA Northwest Mountain Region Letter to Airmen 02-01

VFR Practice Approaches: Page 1, Page 2, Page 3, Page 4.


11 Apr 2002 - FAA Public Notice, 4 new antennas near St. Charles Hospital



Web page by: gem@rellim.com